createdAt,value
2022-11-19T00:03:48.666Z,100010.91
2022-11-19T00:08:54.006Z,100022.38
2022-11-19T00:13:55.892Z,100023.72
2022-11-19T00:18:57.835Z,100020.47
2022-11-19T00:23:59.870Z,100018.50
2022-11-19T00:29:01.817Z,100014.59
2022-11-19T00:34:04.044Z,100022.75
2022-11-19T00:39:05.976Z,100016.59
2022-11-19T00:44:07.779Z,100013.81
2022-11-19T00:49:09.747Z,100011.28
2022-11-19T00:54:11.542Z,100014.72
2022-11-19T00:59:13.726Z,100025.22
2022-11-19T01:04:15.515Z,100030.66
2022-11-19T01:09:17.542Z,100033.31
2022-11-19T01:14:19.691Z,100041.16
2022-11-19T01:19:24.634Z,100038.50
2022-11-19T01:24:26.390Z,100043.06
2022-11-19T01:29:28.418Z,100036.81
2022-11-19T01:34:30.296Z,100046.59
2022-11-19T01:39:32.166Z,100047.13
2022-11-19T01:45:07.319Z,100053.88
2022-11-19T01:50:09.195Z,100048.50
2022-11-19T01:55:11.876Z,100055.13
2022-11-19T02:00:14.008Z,100064.22
2022-11-19T02:05:16.383Z,100066.03
2022-11-19T02:10:18.581Z,100069.63
2022-11-19T02:15:37.404Z,100072.28
2022-11-19T02:20:42.454Z,100070.59
2022-11-19T02:26:06.379Z,100076.56
2022-11-19T02:31:29.745Z,100094.50
2022-11-19T02:36:37.505Z,100090.78
2022-11-19T02:41:52.712Z,100098.97
2022-11-19T02:46:57.408Z,100105.13
2022-11-19T02:52:00.795Z,100110.44
2022-11-19T02:57:03.724Z,100116.53
2022-11-19T03:02:26.256Z,100114.91
2022-11-19T03:07:28.294Z,100117.72
2022-11-19T03:12:49.879Z,100119.47
2022-11-19T03:18:06.597Z,100129.13
2022-11-19T03:23:18.889Z,100135.47
2022-11-19T03:28:25.553Z,100132.75
2022-11-19T03:33:33.610Z,100138.91
2022-11-19T03:38:42.052Z,100137.22
2022-11-19T03:43:48.660Z,100139.88
2022-11-19T03:48:53.130Z,100136.44
2022-11-19T03:53:55.150Z,100144.00
2022-11-19T03:58:59.324Z,100152.53
2022-11-19T04:04:19.879Z,100155.53
2022-11-19T04:09:22.040Z,100159.47
2022-11-19T04:14:24.059Z,100168.13
2022-11-19T04:19:26.056Z,100171.34
2022-11-19T04:24:28.150Z,100182.44
2022-11-19T04:29:29.989Z,100183.38
2022-11-19T04:34:31.777Z,100185.88
2022-11-19T04:39:34.043Z,100185.97
2022-11-19T04:44:36.104Z,100186.81
2022-11-19T04:49:38.240Z,100190.69
2022-11-19T04:54:40.922Z,100196.94
2022-11-19T04:59:43.057Z,100191.34
2022-11-19T05:04:44.910Z,100200.00
2022-11-19T05:09:46.760Z,100193.06
2022-11-19T05:14:48.772Z,100204.75
2022-11-19T05:19:50.625Z,100217.06
2022-11-19T05:24:52.413Z,100219.72
2022-11-19T05:29:54.221Z,100226.78
2022-11-19T05:34:56.133Z,100226.94
2022-11-19T05:39:58.309Z,100228.53
2022-11-19T05:45:00.399Z,100247.25
2022-11-19T05:50:02.414Z,100246.47
2022-11-19T05:55:04.551Z,100245.53
2022-11-19T06:00:06.802Z,100256.16
2022-11-19T06:05:09.173Z,100262.44
2022-11-19T06:10:11.098Z,100256.91
2022-11-19T06:15:14.319Z,100269.28
2022-11-19T06:20:16.496Z,100265.09
2022-11-19T06:25:18.960Z,100275.53
2022-11-19T06:30:20.932Z,100272.88
2022-11-19T06:35:22.705Z,100286.50
2022-11-19T06:40:24.519Z,100289.91
2022-11-19T06:45:26.755Z,100301.50
2022-11-19T06:50:28.766Z,100306.97
2022-11-19T06:55:30.686Z,100315.19
2022-11-19T07:00:32.861Z,100314.69
2022-11-19T07:05:34.738Z,100331.16
2022-11-19T07:10:36.848Z,100324.44
2022-11-19T07:15:39.037Z,100333.38
2022-11-19T07:20:41.892Z,100330.81
2022-11-19T07:25:44.003Z,100337.16
2022-11-19T07:30:46.031Z,100352.06
2022-11-19T07:35:47.891Z,100359.41
2022-11-19T07:40:54.424Z,100355.03
2022-11-19T07:45:56.236Z,100368.16
2022-11-19T07:50:58.037Z,100372.88
2022-11-19T07:56:00.794Z,100394.00
2022-11-19T08:01:10.920Z,100396.34
2022-11-19T08:06:14.520Z,100392.75
2022-11-19T08:11:17.108Z,100393.22
2022-11-19T08:16:37.912Z,100403.06
2022-11-19T08:21:45.260Z,100396.50
2022-11-19T08:26:47.483Z,100401.63
2022-11-19T08:31:50.150Z,100408.91
2022-11-19T08:36:52.075Z,100419.38
2022-11-19T08:42:12.573Z,100424.50
2022-11-19T08:47:14.632Z,100417.50
2022-11-19T08:52:16.739Z,100422.88
2022-11-19T08:57:18.732Z,100427.59
2022-11-19T09:02:21.799Z,100437.13
2022-11-19T09:07:23.744Z,100442.34
2022-11-19T09:12:25.628Z,100451.19
2022-11-19T09:17:27.537Z,100436.94
2022-11-19T09:22:30.182Z,100440.44
2022-11-19T09:27:32.091Z,100442.19
2022-11-19T09:32:34.874Z,100452.81
2022-11-19T09:37:36.987Z,100464.53
2022-11-19T09:43:20.806Z,100457.41
2022-11-19T09:48:36.073Z,100467.25
2022-11-19T09:53:53.414Z,100457.94
2022-11-19T09:58:57.726Z,100476.78
2022-11-19T10:04:00.615Z,100472.31
2022-11-19T10:09:05.213Z,100478.06
2022-11-19T10:14:35.717Z,100484.69
2022-11-19T10:19:47.785Z,100492.78
2022-11-19T10:25:01.968Z,100487.66
2022-11-19T10:30:12.795Z,100495.44
2022-11-19T10:35:19.314Z,100501.25
2022-11-19T10:40:24.238Z,100500.94
2022-11-19T10:45:29.861Z,100505.53
2022-11-19T10:50:31.862Z,100506.97
2022-11-19T10:55:41.262Z,100499.31
2022-11-19T11:00:43.693Z,100515.13
2022-11-19T11:06:06.850Z,100504.38
2022-11-19T11:11:08.808Z,100504.38
2022-11-19T11:16:13.883Z,100499.97
2022-11-19T11:21:33.393Z,100496.97
2022-11-19T11:26:36.566Z,100499.19
2022-11-19T11:31:43.873Z,100508.44
2022-11-19T11:36:46.493Z,100500.34
2022-11-19T11:42:07.268Z,100495.09
2022-11-19T11:47:16.605Z,100498.91
2022-11-19T11:52:29.776Z,100497.69
2022-11-19T11:57:37.730Z,100498.53
2022-11-19T12:02:39.953Z,100490.31
2022-11-19T12:08:04.939Z,100492.25
2022-11-19T12:13:35.496Z,100489.00
2022-11-19T12:18:56.181Z,100492.69
2022-11-19T12:24:18.404Z,100499.16
2022-11-19T12:29:45.730Z,100500.25
2022-11-19T12:34:54.064Z,100508.72
2022-11-19T12:40:03.065Z,100513.25
2022-11-19T12:45:24.655Z,100510.72
2022-11-19T12:50:39.416Z,100512.72
2022-11-19T12:55:52.155Z,100506.50
2022-11-19T13:00:59.884Z,100500.38
2022-11-19T13:06:07.445Z,100511.97
2022-11-19T13:11:36.888Z,100505.66
2022-11-19T13:16:40.628Z,100503.44
2022-11-19T13:21:53.075Z,100506.63
2022-11-19T13:26:59.701Z,100505.19
2022-11-19T13:32:24.393Z,100507.94
2022-11-19T13:37:58.523Z,100506.84
2022-11-19T13:43:36.214Z,100511.81
2022-11-19T13:48:46.459Z,100516.97
2022-11-19T13:53:48.728Z,100516.91
2022-11-19T13:58:54.744Z,100522.09
2022-11-19T14:04:15.567Z,100516.78
2022-11-19T14:09:42.020Z,100524.69
2022-11-19T14:15:23.842Z,100536.72
2022-11-19T14:20:59.276Z,100529.63
2022-11-19T14:26:19.598Z,100530.06
2022-11-19T14:31:22.249Z,100533.66
2022-11-19T14:36:36.621Z,100531.25
2022-11-19T14:41:38.482Z,100531.25
2022-11-19T14:46:45.664Z,100532.88
2022-11-19T14:51:54.457Z,100534.69
2022-11-19T14:57:06.663Z,100542.41
2022-11-19T15:02:34.206Z,100532.56
2022-11-19T15:07:49.023Z,100537.34
2022-11-19T15:13:22.814Z,100529.34
2022-11-19T15:18:42.672Z,100542.38
2022-11-19T15:24:18.566Z,100542.22
2022-11-19T15:29:45.178Z,100552.00
2022-11-19T15:35:09.671Z,100543.25
2022-11-19T15:40:19.133Z,100548.63
2022-11-19T15:45:23.712Z,100550.59
2022-11-19T15:50:27.969Z,100553.41
2022-11-19T15:55:31.529Z,100560.75
2022-11-19T16:00:46.155Z,100565.13
2022-11-19T16:06:10.943Z,100572.47
2022-11-19T16:11:36.896Z,100574.13
2022-11-19T16:16:58.584Z,100571.06
2022-11-19T16:22:05.123Z,100575.91
2022-11-19T16:27:10.941Z,100577.00
2022-11-19T16:32:17.511Z,100573.25
2022-11-19T16:37:22.278Z,100572.41
2022-11-19T16:42:29.574Z,100563.34
2022-11-19T16:47:35.958Z,100560.94
2022-11-19T16:52:42.985Z,100563.59
2022-11-19T16:57:50.213Z,100560.28
2022-11-19T17:02:53.517Z,100555.84
2022-11-19T17:08:09.649Z,100558.50
2022-11-19T17:13:20.790Z,100564.81
2022-11-19T17:18:35.311Z,100572.78
2022-11-19T17:23:48.327Z,100576.22
2022-11-19T17:28:54.333Z,100572.88
2022-11-19T17:34:12.593Z,100579.53
2022-11-19T17:39:15.273Z,100581.53
2022-11-19T17:44:36.861Z,100587.00
2022-11-19T17:49:39.038Z,100592.25
2022-11-19T17:54:41.009Z,100602.09
2022-11-19T17:59:42.967Z,100600.28
2022-11-19T18:04:46.050Z,100591.25
2022-11-19T18:09:47.833Z,100595.69
2022-11-19T18:14:49.574Z,100599.75
2022-11-19T18:19:51.450Z,100601.06
2022-11-19T18:24:53.536Z,100593.97
2022-11-19T18:29:55.255Z,100595.75
2022-11-19T18:35:00.738Z,100605.44
2022-11-19T18:40:04.516Z,100601.69
2022-11-19T18:45:06.874Z,100598.50
2022-11-19T18:50:12.539Z,100603.97
2022-11-19T18:55:14.703Z,100596.16
2022-11-19T19:00:17.306Z,100596.22
2022-11-19T19:05:19.914Z,100592.94
2022-11-19T19:10:22.032Z,100587.50
2022-11-19T19:15:24.895Z,100583.03
2022-11-19T19:20:27.253Z,100592.78
2022-11-19T19:25:29.617Z,100586.63
2022-11-19T19:30:31.662Z,100584.75
2022-11-19T19:35:33.387Z,100583.19
2022-11-19T19:40:35.900Z,100588.09
2022-11-19T19:45:38.872Z,100586.84
2022-11-19T19:50:41.217Z,100584.06
2022-11-19T19:55:43.518Z,100584.53
2022-11-19T20:00:45.917Z,100595.81
2022-11-19T20:05:48.994Z,100585.44
2022-11-19T20:10:51.002Z,100600.22
2022-11-19T20:15:53.373Z,100595.53
2022-11-19T20:21:01.007Z,100598.97
2022-11-19T20:26:06.235Z,100605.50
2022-11-19T20:31:19.744Z,100611.09
2022-11-19T20:36:27.635Z,100605.75
2022-11-19T20:41:48.025Z,100604.22
2022-11-19T20:47:00.733Z,100599.69
2022-11-19T20:52:03.757Z,100614.03
2022-11-19T20:57:06.204Z,100607.09
2022-11-19T21:02:09.940Z,100614.03
2022-11-19T21:07:11.859Z,100623.34
2022-11-19T21:12:14.186Z,100621.06
2022-11-19T21:17:16.331Z,100627.47
2022-11-19T21:22:19.072Z,100622.09
2022-11-19T21:27:21.321Z,100623.97
2022-11-19T21:32:23.331Z,100614.81
2022-11-19T21:37:25.996Z,100609.03
2022-11-19T21:42:28.132Z,100597.41
2022-11-19T21:47:30.264Z,100607.25
2022-11-19T21:52:32.186Z,100610.75
2022-11-19T21:57:34.016Z,100606.38
2022-11-19T22:02:35.908Z,100601.16
2022-11-19T22:07:37.840Z,100603.72
2022-11-19T22:12:39.872Z,100595.94
2022-11-19T22:17:41.928Z,100605.28
2022-11-19T22:22:45.478Z,100608.56
2022-11-19T22:27:47.621Z,100605.69
2022-11-19T22:32:49.545Z,100609.75
2022-11-19T22:37:51.561Z,100614.59
2022-11-19T22:42:53.501Z,100601.31
2022-11-19T22:47:55.888Z,100612.63
2022-11-19T22:52:57.966Z,100619.06
2022-11-19T22:57:59.952Z,100613.75
2022-11-19T23:03:01.959Z,100610.56
2022-11-19T23:08:05.815Z,100612.59
2022-11-19T23:13:28.659Z,100622.38
2022-11-19T23:18:32.794Z,100616.22
2022-11-19T23:23:35.252Z,100605.44
2022-11-19T23:28:37.907Z,100598.34
2022-11-19T23:33:39.915Z,100601.25
2022-11-19T23:38:42.285Z,100602.00
2022-11-19T23:43:44.787Z,100604.66
2022-11-19T23:48:48.172Z,100613.09
2022-11-19T23:53:50.210Z,100606.47
2022-11-19T23:58:53.377Z,100602.16
